Terminal Aerodrome Forecast
Issued by NWS Brownsville, TX

Current Version | Previous Version | Text Only | Print | Product List | Glossary Off
Versions: 1 2 3 4 5 6 7 8 9 10 11 12 13 14 15 16 17 18 19 20 21 22 23

000
FTUS44 KBRO 260728 AAB
TAFBRO
TAF AMD
KBRO 260728Z 2607/2706 11015KT P6SM -RA VCTS SCT030CB SCT100 BKN110
      TEMPO 2607/2608 VRB15G25KT 3SM -TSRA BKN015CB
     FM261500 14015G20KT P6SM BKN025
     FM261700 15018G25KT P6SM SCT030 BKN050 OVC250
     FM270200 14012G18KT P6SM BKN015 PROB30 2702/2706 4SM -TSRA
      BKN010CB=

USA.gov is the U.S. government's official web portal to all federal, state and local government web resources and services.